sensor_id;sensor_type;location;lat;lon;timestamp;temperature;humidity
23991;DHT22;12205;50.600;4.608;2023-06-14T00:02:07;21.00;80.00
23991;DHT22;12205;50.600;4.608;2023-06-14T00:04:35;20.90;80.40
23991;DHT22;12205;50.600;4.608;2023-06-14T00:07:03;20.90;80.60
23991;DHT22;12205;50.600;4.608;2023-06-14T00:09:33;20.90;81.30
23991;DHT22;12205;50.600;4.608;2023-06-14T00:12:00;20.80;81.20
23991;DHT22;12205;50.600;4.608;2023-06-14T00:14:28;20.80;81.10
23991;DHT22;12205;50.600;4.608;2023-06-14T00:16:55;20.70;81.60
23991;DHT22;12205;50.600;4.608;2023-06-14T00:19:25;20.70;82.70
23991;DHT22;12205;50.600;4.608;2023-06-14T00:21:52;20.70;82.80
23991;DHT22;12205;50.600;4.608;2023-06-14T00:24:20;20.60;82.90
23991;DHT22;12205;50.600;4.608;2023-06-14T00:26:47;20.60;86.00
23991;DHT22;12205;50.600;4.608;2023-06-14T00:29:14;20.50;85.70
23991;DHT22;12205;50.600;4.608;2023-06-14T00:31:41;20.50;85.80
23991;DHT22;12205;50.600;4.608;2023-06-14T00:34:08;20.40;85.70
23991;DHT22;12205;50.600;4.608;2023-06-14T00:36:37;20.40;87.90
23991;DHT22;12205;50.600;4.608;2023-06-14T00:39:04;20.30;89.30
23991;DHT22;12205;50.600;4.608;2023-06-14T00:41:31;20.20;89.00
23991;DHT22;12205;50.600;4.608;2023-06-14T00:43:58;20.20;88.70
23991;DHT22;12205;50.600;4.608;2023-06-14T00:46:25;20.10;90.70
23991;DHT22;12205;50.600;4.608;2023-06-14T00:48:55;20.00;92.00
23991;DHT22;12205;50.600;4.608;2023-06-14T00:51:23;19.90;92.40
23991;DHT22;12205;50.600;4.608;2023-06-14T00:53:52;19.90;92.10
23991;DHT22;12205;50.600;4.608;2023-06-14T00:56:19;19.80;92.00
23991;DHT22;12205;50.600;4.608;2023-06-14T00:58:50;19.80;92.40
23991;DHT22;12205;50.600;4.608;2023-06-14T01:01:18;19.70;92.90
23991;DHT22;12205;50.600;4.608;2023-06-14T01:03:46;19.60;92.80
23991;DHT22;12205;50.600;4.608;2023-06-14T01:06:20;19.60;93.70
23991;DHT22;12205;50.600;4.608;2023-06-14T01:09:03;19.50;94.70
23991;DHT22;12205;50.600;4.608;2023-06-14T01:11:41;19.50;94.60
23991;DHT22;12205;50.600;4.608;2023-06-14T01:14:14;19.40;94.30
23991;DHT22;12205;50.600;4.608;2023-06-14T01:16:46;19.30;95.60
23991;DHT22;12205;50.600;4.608;2023-06-14T01:19:20;19.30;95.80
23991;DHT22;12205;50.600;4.608;2023-06-14T01:21:51;19.20;95.50
23991;DHT22;12205;50.600;4.608;2023-06-14T01:24:20;19.20;96.10
23991;DHT22;12205;50.600;4.608;2023-06-14T01:26:59;19.10;96.10
23991;DHT22;12205;50.600;4.608;2023-06-14T01:29:28;19.10;96.80
23991;DHT22;12205;50.600;4.608;2023-06-14T01:31:58;19.00;97.00
23991;DHT22;12205;50.600;4.608;2023-06-14T01:34:30;18.90;97.90
23991;DHT22;12205;50.600;4.608;2023-06-14T01:37:00;18.90;99.70
23991;DHT22;12205;50.600;4.608;2023-06-14T01:39:30;18.80;99.90
23991;DHT22;12205;50.600;4.608;2023-06-14T01:41:58;18.70;99.90
23991;DHT22;12205;50.600;4.608;2023-06-14T01:44:27;18.60;99.90
23991;DHT22;12205;50.600;4.608;2023-06-14T01:46:56;18.60;99.90
23991;DHT22;12205;50.600;4.608;2023-06-14T01:49:24;18.50;99.90
23991;DHT22;12205;50.600;4.608;2023-06-14T01:51:53;18.40;99.90
23991;DHT22;12205;50.600;4.608;2023-06-14T01:54:20;18.40;99.90
23991;DHT22;12205;50.600;4.608;2023-06-14T01:56:48;18.30;99.90
23991;DHT22;12205;50.600;4.608;2023-06-14T01:59:16;18.30;99.90
23991;DHT22;12205;50.600;4.608;2023-06-14T02:01:43;18.20;99.90
23991;DHT22;12205;50.600;4.608;2023-06-14T02:04:11;18.20;99.90
23991;DHT22;12205;50.600;4.608;2023-06-14T02:06:38;18.10;99.90
23991;DHT22;12205;50.600;4.608;2023-06-14T02:09:06;18.00;99.90
23991;DHT22;12205;50.600;4.608;2023-06-14T02:11:33;18.00;99.90
23991;DHT22;12205;50.600;4.608;2023-06-14T02:14:01;18.00;99.90
23991;DHT22;12205;50.600;4.608;2023-06-14T02:16:28;17.90;99.90
23991;DHT22;12205;50.600;4.608;2023-06-14T02:18:55;17.90;99.90
23991;DHT22;12205;50.600;4.608;2023-06-14T02:21:23;17.80;99.90
23991;DHT22;12205;50.600;4.608;2023-06-14T02:23:50;17.80;99.90
23991;DHT22;12205;50.600;4.608;2023-06-14T02:26:17;17.70;99.90
23991;DHT22;12205;50.600;4.608;2023-06-14T02:28:44;17.70;99.90
23991;DHT22;12205;50.600;4.608;2023-06-14T02:31:13;17.60;99.90
23991;DHT22;12205;50.600;4.608;2023-06-14T02:33:40;17.60;99.90
23991;DHT22;12205;50.600;4.608;2023-06-14T02:36:07;17.50;99.90
23991;DHT22;12205;50.600;4.608;2023-06-14T02:38:34;17.50;99.90
23991;DHT22;12205;50.600;4.608;2023-06-14T02:41:01;17.40;99.90
23991;DHT22;12205;50.600;4.608;2023-06-14T02:43:29;17.40;99.90
23991;DHT22;12205;50.600;4.608;2023-06-14T02:45:58;17.30;99.90
23991;DHT22;12205;50.600;4.608;2023-06-14T02:48:27;17.30;99.90
23991;DHT22;12205;50.600;4.608;2023-06-14T02:50:54;17.30;99.90
23991;DHT22;12205;50.600;4.608;2023-06-14T02:53:21;17.20;99.90
23991;DHT22;12205;50.600;4.608;2023-06-14T02:55:49;17.20;99.90
23991;DHT22;12205;50.600;4.608;2023-06-14T02:58:17;17.10;99.90
23991;DHT22;12205;50.600;4.608;2023-06-14T03:00:45;17.10;99.90
23991;DHT22;12205;50.600;4.608;2023-06-14T03:03:13;17.00;99.90
23991;DHT22;12205;50.600;4.608;2023-06-14T03:05:49;17.00;99.90
23991;DHT22;12205;50.600;4.608;2023-06-14T03:08:21;17.00;99.90
23991;DHT22;12205;50.600;4.608;2023-06-14T03:10:53;16.90;99.90
23991;DHT22;12205;50.600;4.608;2023-06-14T03:13:22;16.80;99.90
23991;DHT22;12205;50.600;4.608;2023-06-14T03:15:51;16.80;99.90
23991;DHT22;12205;50.600;4.608;2023-06-14T03:18:19;16.70;99.90
23991;DHT22;12205;50.600;4.608;2023-06-14T03:20:51;16.70;99.90
23991;DHT22;12205;50.600;4.608;2023-06-14T03:23:19;16.70;99.90
23991;DHT22;12205;50.600;4.608;2023-06-14T03:25:47;16.60;99.90
23991;DHT22;12205;50.600;4.608;2023-06-14T03:28:14;16.60;99.90
23991;DHT22;12205;50.600;4.608;2023-06-14T03:30:42;16.60;99.90
23991;DHT22;12205;50.600;4.608;2023-06-14T03:33:10;16.50;99.90
23991;DHT22;12205;50.600;4.608;2023-06-14T03:35:39;16.50;99.90
23991;DHT22;12205;50.600;4.608;2023-06-14T03:38:09;16.40;99.90
23991;DHT22;12205;50.600;4.608;2023-06-14T03:40:36;16.40;99.90
23991;DHT22;12205;50.600;4.608;2023-06-14T03:43:05;16.40;99.90
23991;DHT22;12205;50.600;4.608;2023-06-14T03:45:32;16.40;99.90
23991;DHT22;12205;50.600;4.608;2023-06-14T03:48:00;16.30;99.90
23991;DHT22;12205;50.600;4.608;2023-06-14T03:50:30;16.30;99.90
23991;DHT22;12205;50.600;4.608;2023-06-14T03:52:57;16.20;99.90
23991;DHT22;12205;50.600;4.608;2023-06-14T03:55:26;16.20;99.90
23991;DHT22;12205;50.600;4.608;2023-06-14T03:57:53;16.20;99.90
23991;DHT22;12205;50.600;4.608;2023-06-14T04:00:21;16.10;99.90
23991;DHT22;12205;50.600;4.608;2023-06-14T04:02:49;16.10;99.90
23991;DHT22;12205;50.600;4.608;2023-06-14T04:05:17;16.10;99.90
23991;DHT22;12205;50.600;4.608;2023-06-14T04:07:48;16.20;99.90
23991;DHT22;12205;50.600;4.608;2023-06-14T04:10:16;16.20;99.90
23991;DHT22;12205;50.600;4.608;2023-06-14T04:12:47;16.20;99.90
23991;DHT22;12205;50.600;4.608;2023-06-14T04:15:17;16.10;99.90
23991;DHT22;12205;50.600;4.608;2023-06-14T04:17:44;16.10;99.90
23991;DHT22;12205;50.600;4.608;2023-06-14T04:20:11;16.10;99.90
23991;DHT22;12205;50.600;4.608;2023-06-14T04:22:39;16.10;99.90
23991;DHT22;12205;50.600;4.608;2023-06-14T04:25:07;16.20;99.90
23991;DHT22;12205;50.600;4.608;2023-06-14T04:27:35;16.20;99.90
23991;DHT22;12205;50.600;4.608;2023-06-14T04:30:06;16.20;99.90
23991;DHT22;12205;50.600;4.608;2023-06-14T04:32:38;16.30;99.90
23991;DHT22;12205;50.600;4.608;2023-06-14T04:35:07;16.30;99.90
23991;DHT22;12205;50.600;4.608;2023-06-14T04:37:37;16.30;99.90
23991;DHT22;12205;50.600;4.608;2023-06-14T04:40:08;16.40;99.90
23991;DHT22;12205;50.600;4.608;2023-06-14T04:42:37;16.40;99.90
23991;DHT22;12205;50.600;4.608;2023-06-14T04:45:09;16.40;99.90
23991;DHT22;12205;50.600;4.608;2023-06-14T04:47:38;16.40;99.90
23991;DHT22;12205;50.600;4.608;2023-06-14T04:50:06;16.40;99.90
23991;DHT22;12205;50.600;4.608;2023-06-14T04:52:34;16.50;99.90
23991;DHT22;12205;50.600;4.608;2023-06-14T04:55:01;16.60;99.90
23991;DHT22;12205;50.600;4.608;2023-06-14T04:57:28;16.60;99.90
23991;DHT22;12205;50.600;4.608;2023-06-14T04:59:58;16.70;99.90
23991;DHT22;12205;50.600;4.608;2023-06-14T05:02:28;16.70;99.90
23991;DHT22;12205;50.600;4.608;2023-06-14T05:04:59;16.70;99.90
23991;DHT22;12205;50.600;4.608;2023-06-14T05:07:27;16.80;99.90
23991;DHT22;12205;50.600;4.608;2023-06-14T05:09:54;16.80;99.90
23991;DHT22;12205;50.600;4.608;2023-06-14T05:12:21;16.90;99.90
23991;DHT22;12205;50.600;4.608;2023-06-14T05:14:49;16.90;99.90
23991;DHT22;12205;50.600;4.608;2023-06-14T05:17:19;17.00;99.90
23991;DHT22;12205;50.600;4.608;2023-06-14T05:19:47;17.10;99.90
23991;DHT22;12205;50.600;4.608;2023-06-14T05:22:14;17.10;99.90
23991;DHT22;12205;50.600;4.608;2023-06-14T05:24:41;17.20;99.90
23991;DHT22;12205;50.600;4.608;2023-06-14T05:27:09;17.30;99.90
23991;DHT22;12205;50.600;4.608;2023-06-14T05:29:36;17.30;99.90
23991;DHT22;12205;50.600;4.608;2023-06-14T05:32:04;17.40;99.90
23991;DHT22;12205;50.600;4.608;2023-06-14T05:34:31;17.50;99.90
23991;DHT22;12205;50.600;4.608;2023-06-14T05:36:59;17.50;99.90
23991;DHT22;12205;50.600;4.608;2023-06-14T05:39:26;17.60;99.90
23991;DHT22;12205;50.600;4.608;2023-06-14T05:41:54;17.70;99.90
23991;DHT22;12205;50.600;4.608;2023-06-14T05:44:21;17.80;99.90
23991;DHT22;12205;50.600;4.608;2023-06-14T05:46:48;17.90;99.90
23991;DHT22;12205;50.600;4.608;2023-06-14T05:49:15;18.00;99.90
23991;DHT22;12205;50.600;4.608;2023-06-14T05:51:42;18.10;99.90
23991;DHT22;12205;50.600;4.608;2023-06-14T05:54:10;18.20;99.90
23991;DHT22;12205;50.600;4.608;2023-06-14T05:56:37;18.30;99.90
23991;DHT22;12205;50.600;4.608;2023-06-14T05:59:04;18.40;99.90
23991;DHT22;12205;50.600;4.608;2023-06-14T06:01:31;18.50;99.90
23991;DHT22;12205;50.600;4.608;2023-06-14T06:03:59;18.60;99.90
23991;DHT22;12205;50.600;4.608;2023-06-14T06:06:26;18.70;99.90
23991;DHT22;12205;50.600;4.608;2023-06-14T06:08:53;18.80;99.90
23991;DHT22;12205;50.600;4.608;2023-06-14T06:11:22;18.90;99.90
23991;DHT22;12205;50.600;4.608;2023-06-14T06:13:49;19.00;99.90
23991;DHT22;12205;50.600;4.608;2023-06-14T06:16:16;19.10;99.90
23991;DHT22;12205;50.600;4.608;2023-06-14T06:18:43;19.20;99.90
23991;DHT22;12205;50.600;4.608;2023-06-14T06:21:11;19.30;99.90
23991;DHT22;12205;50.600;4.608;2023-06-14T06:23:38;19.40;99.90
23991;DHT22;12205;50.600;4.608;2023-06-14T06:26:05;19.50;99.90
23991;DHT22;12205;50.600;4.608;2023-06-14T06:28:34;19.60;99.90
23991;DHT22;12205;50.600;4.608;2023-06-14T06:31:01;19.70;99.90
23991;DHT22;12205;50.600;4.608;2023-06-14T06:33:28;19.80;99.90
23991;DHT22;12205;50.600;4.608;2023-06-14T06:35:56;19.90;99.90
23991;DHT22;12205;50.600;4.608;2023-06-14T06:38:23;20.00;99.90
23991;DHT22;12205;50.600;4.608;2023-06-14T06:40:50;20.10;99.90
23991;DHT22;12205;50.600;4.608;2023-06-14T06:43:19;20.30;99.90
23991;DHT22;12205;50.600;4.608;2023-06-14T06:45:49;20.40;99.90
23991;DHT22;12205;50.600;4.608;2023-06-14T06:48:16;20.40;99.90
23991;DHT22;12205;50.600;4.608;2023-06-14T06:50:43;20.50;99.90
23991;DHT22;12205;50.600;4.608;2023-06-14T06:53:11;20.60;99.90
23991;DHT22;12205;50.600;4.608;2023-06-14T06:55:38;20.70;99.90
23991;DHT22;12205;50.600;4.608;2023-06-14T06:58:05;20.80;99.90
23991;DHT22;12205;50.600;4.608;2023-06-14T07:00:32;20.90;99.90
23991;DHT22;12205;50.600;4.608;2023-06-14T07:03:00;21.00;99.90
23991;DHT22;12205;50.600;4.608;2023-06-14T07:05:29;21.00;99.90
23991;DHT22;12205;50.600;4.608;2023-06-14T07:07:57;21.10;99.90
23991;DHT22;12205;50.600;4.608;2023-06-14T07:10:24;21.20;99.90
23991;DHT22;12205;50.600;4.608;2023-06-14T07:12:51;21.30;99.90
23991;DHT22;12205;50.600;4.608;2023-06-14T07:15:18;21.40;99.90
23991;DHT22;12205;50.600;4.608;2023-06-14T07:17:45;21.50;99.90
23991;DHT22;12205;50.600;4.608;2023-06-14T07:20:14;21.60;99.90
23991;DHT22;12205;50.600;4.608;2023-06-14T07:22:42;21.60;99.90
23991;DHT22;12205;50.600;4.608;2023-06-14T07:25:10;21.70;99.90
23991;DHT22;12205;50.600;4.608;2023-06-14T07:27:39;21.80;99.90
23991;DHT22;12205;50.600;4.608;2023-06-14T07:30:08;21.90;99.90
23991;DHT22;12205;50.600;4.608;2023-06-14T07:32:36;22.00;99.90
23991;DHT22;12205;50.600;4.608;2023-06-14T07:35:04;22.10;99.90
23991;DHT22;12205;50.600;4.608;2023-06-14T07:37:33;22.10;99.90
23991;DHT22;12205;50.600;4.608;2023-06-14T07:40:00;22.20;99.90
23991;DHT22;12205;50.600;4.608;2023-06-14T07:42:30;22.20;99.90
23991;DHT22;12205;50.600;4.608;2023-06-14T07:44:57;22.30;99.90
23991;DHT22;12205;50.600;4.608;2023-06-14T07:47:24;22.40;99.90
23991;DHT22;12205;50.600;4.608;2023-06-14T07:49:51;22.50;99.90
23991;DHT22;12205;50.600;4.608;2023-06-14T07:52:18;22.60;99.90
23991;DHT22;12205;50.600;4.608;2023-06-14T07:54:47;22.60;99.90
23991;DHT22;12205;50.600;4.608;2023-06-14T07:57:14;22.70;99.90
23991;DHT22;12205;50.600;4.608;2023-06-14T07:59:41;22.80;99.90
23991;DHT22;12205;50.600;4.608;2023-06-14T08:02:08;22.90;99.90
23991;DHT22;12205;50.600;4.608;2023-06-14T08:04:35;22.90;99.90
23991;DHT22;12205;50.600;4.608;2023-06-14T08:07:03;23.00;99.90
23991;DHT22;12205;50.600;4.608;2023-06-14T08:09:31;23.10;99.90
23991;DHT22;12205;50.600;4.608;2023-06-14T08:11:59;23.10;99.90
23991;DHT22;12205;50.600;4.608;2023-06-14T08:14:26;23.20;99.90
23991;DHT22;12205;50.600;4.608;2023-06-14T08:16:54;23.30;99.90
23991;DHT22;12205;50.600;4.608;2023-06-14T08:19:21;23.30;99.90
23991;DHT22;12205;50.600;4.608;2023-06-14T08:21:48;23.40;99.90
23991;DHT22;12205;50.600;4.608;2023-06-14T08:24:16;23.50;99.90
23991;DHT22;12205;50.600;4.608;2023-06-14T08:26:44;23.50;99.90
23991;DHT22;12205;50.600;4.608;2023-06-14T08:29:13;23.50;99.90
23991;DHT22;12205;50.600;4.608;2023-06-14T08:31:40;23.70;99.90
23991;DHT22;12205;50.600;4.608;2023-06-14T08:34:07;23.80;99.90
23991;DHT22;12205;50.600;4.608;2023-06-14T08:36:35;23.80;99.90
23991;DHT22;12205;50.600;4.608;2023-06-14T08:39:02;23.90;99.90
23991;DHT22;12205;50.600;4.608;2023-06-14T08:41:30;24.10;99.90
23991;DHT22;12205;50.600;4.608;2023-06-14T08:43:57;24.20;99.90
23991;DHT22;12205;50.600;4.608;2023-06-14T08:46:26;24.30;99.90
23991;DHT22;12205;50.600;4.608;2023-06-14T08:48:55;24.30;99.90
23991;DHT22;12205;50.600;4.608;2023-06-14T08:51:25;24.40;99.90
23991;DHT22;12205;50.600;4.608;2023-06-14T08:53:59;24.50;99.90
23991;DHT22;12205;50.600;4.608;2023-06-14T08:56:28;24.60;99.90
23991;DHT22;12205;50.600;4.608;2023-06-14T08:58:56;24.70;99.90
23991;DHT22;12205;50.600;4.608;2023-06-14T09:01:28;24.80;99.90
23991;DHT22;12205;50.600;4.608;2023-06-14T09:03:56;24.90;99.90
23991;DHT22;12205;50.600;4.608;2023-06-14T09:06:24;25.00;99.90
23991;DHT22;12205;50.600;4.608;2023-06-14T09:08:55;25.00;99.90
23991;DHT22;12205;50.600;4.608;2023-06-14T09:11:23;25.10;99.90
23991;DHT22;12205;50.600;4.608;2023-06-14T09:13:52;25.20;99.90
23991;DHT22;12205;50.600;4.608;2023-06-14T09:16:19;25.20;99.90
23991;DHT22;12205;50.600;4.608;2023-06-14T09:18:48;25.30;99.90
23991;DHT22;12205;50.600;4.608;2023-06-14T09:21:15;25.30;99.90
23991;DHT22;12205;50.600;4.608;2023-06-14T09:23:44;25.40;99.90
23991;DHT22;12205;50.600;4.608;2023-06-14T09:26:14;25.40;99.90
23991;DHT22;12205;50.600;4.608;2023-06-14T09:28:42;25.40;99.90
23991;DHT22;12205;50.600;4.608;2023-06-14T09:31:11;25.50;99.90
23991;DHT22;12205;50.600;4.608;2023-06-14T09:33:38;25.50;99.90
23991;DHT22;12205;50.600;4.608;2023-06-14T09:36:11;25.60;99.90
23991;DHT22;12205;50.600;4.608;2023-06-14T09:38:41;25.60;99.90
23991;DHT22;12205;50.600;4.608;2023-06-14T09:41:08;25.70;99.90
23991;DHT22;12205;50.600;4.608;2023-06-14T09:43:36;25.70;99.90
23991;DHT22;12205;50.600;4.608;2023-06-14T09:46:05;25.80;99.90
23991;DHT22;12205;50.600;4.608;2023-06-14T09:48:33;25.80;99.90
23991;DHT22;12205;50.600;4.608;2023-06-14T09:51:01;25.90;99.90
23991;DHT22;12205;50.600;4.608;2023-06-14T09:53:33;26.00;99.90
23991;DHT22;12205;50.600;4.608;2023-06-14T09:56:05;26.00;99.90
23991;DHT22;12205;50.600;4.608;2023-06-14T09:58:35;26.10;99.70
23991;DHT22;12205;50.600;4.608;2023-06-14T10:01:08;26.10;97.90
23991;DHT22;12205;50.600;4.608;2023-06-14T10:03:39;26.20;98.70
23991;DHT22;12205;50.600;4.608;2023-06-14T10:06:08;26.30;98.40
23991;DHT22;12205;50.600;4.608;2023-06-14T10:08:38;26.40;97.70
23991;DHT22;12205;50.600;4.608;2023-06-14T10:11:06;26.40;97.40
23991;DHT22;12205;50.600;4.608;2023-06-14T10:13:34;26.50;96.90
23991;DHT22;12205;50.600;4.608;2023-06-14T10:16:07;26.50;95.40
23991;DHT22;12205;50.600;4.608;2023-06-14T10:18:43;26.60;93.50
23991;DHT22;12205;50.600;4.608;2023-06-14T10:21:22;26.70;93.60
23991;DHT22;12205;50.600;4.608;2023-06-14T10:23:58;26.70;93.30
23991;DHT22;12205;50.600;4.608;2023-06-14T10:26:30;26.80;93.10
23991;DHT22;12205;50.600;4.608;2023-06-14T10:29:01;26.90;92.80
23991;DHT22;12205;50.600;4.608;2023-06-14T10:31:42;27.00;92.90
23991;DHT22;12205;50.600;4.608;2023-06-14T10:34:10;27.10;92.80
23991;DHT22;12205;50.600;4.608;2023-06-14T10:36:41;27.10;92.20
23991;DHT22;12205;50.600;4.608;2023-06-14T10:39:17;27.10;90.20
23991;DHT22;12205;50.600;4.608;2023-06-14T10:41:52;27.20;90.00
23991;DHT22;12205;50.600;4.608;2023-06-14T10:44:39;27.20;90.30
23991;DHT22;12205;50.600;4.608;2023-06-14T10:47:13;27.30;91.20
23991;DHT22;12205;50.600;4.608;2023-06-14T10:49:51;27.40;90.70
23991;DHT22;12205;50.600;4.608;2023-06-14T10:52:22;27.50;90.10
23991;DHT22;12205;50.600;4.608;2023-06-14T10:55:12;27.50;90.00
23991;DHT22;12205;50.600;4.608;2023-06-14T10:57:42;27.60;87.10
23991;DHT22;12205;50.600;4.608;2023-06-14T11:00:12;27.60;82.90
23991;DHT22;12205;50.600;4.608;2023-06-14T11:05:53;27.80;85.10
23991;DHT22;12205;50.600;4.608;2023-06-14T11:08:40;27.80;85.40
23991;DHT22;12205;50.600;4.608;2023-06-14T11:11:42;27.90;84.20
23991;DHT22;12205;50.600;4.608;2023-06-14T11:14:10;28.00;82.40
23991;DHT22;12205;50.600;4.608;2023-06-14T11:16:38;28.10;83.30
23991;DHT22;12205;50.600;4.608;2023-06-14T11:19:05;28.20;82.90
23991;DHT22;12205;50.600;4.608;2023-06-14T11:21:33;28.30;83.00
23991;DHT22;12205;50.600;4.608;2023-06-14T11:24:00;28.50;81.80
23991;DHT22;12205;50.600;4.608;2023-06-14T11:26:27;28.70;81.70
23991;DHT22;12205;50.600;4.608;2023-06-14T11:28:58;28.80;82.00
23991;DHT22;12205;50.600;4.608;2023-06-14T11:31:27;29.10;80.50
23991;DHT22;12205;50.600;4.608;2023-06-14T11:33:55;29.40;78.50
23991;DHT22;12205;50.600;4.608;2023-06-14T11:36:25;29.60;77.70
23991;DHT22;12205;50.600;4.608;2023-06-14T11:38:58;29.90;76.00
23991;DHT22;12205;50.600;4.608;2023-06-14T11:41:32;30.20;74.10
23991;DHT22;12205;50.600;4.608;2023-06-14T11:44:02;30.50;73.30
23991;DHT22;12205;50.600;4.608;2023-06-14T11:46:29;30.90;71.40
23991;DHT22;12205;50.600;4.608;2023-06-14T11:48:56;31.30;70.30
23991;DHT22;12205;50.600;4.608;2023-06-14T11:51:25;31.70;68.70
23991;DHT22;12205;50.600;4.608;2023-06-14T11:53:53;32.20;67.40
23991;DHT22;12205;50.600;4.608;2023-06-14T11:56:20;32.60;66.90
23991;DHT22;12205;50.600;4.608;2023-06-14T11:58:47;33.00;64.80
23991;DHT22;12205;50.600;4.608;2023-06-14T12:01:16;33.50;62.70
23991;DHT22;12205;50.600;4.608;2023-06-14T12:03:48;33.80;62.00
23991;DHT22;12205;50.600;4.608;2023-06-14T12:06:15;34.30;60.10
23991;DHT22;12205;50.600;4.608;2023-06-14T12:08:44;34.60;57.20
23991;DHT22;12205;50.600;4.608;2023-06-14T12:11:15;34.80;56.80
23991;DHT22;12205;50.600;4.608;2023-06-14T12:13:43;35.20;55.70
23991;DHT22;12205;50.600;4.608;2023-06-14T12:16:11;35.50;54.90
23991;DHT22;12205;50.600;4.608;2023-06-14T12:18:41;35.90;53.80
23991;DHT22;12205;50.600;4.608;2023-06-14T12:21:09;36.30;51.70
23991;DHT22;12205;50.600;4.608;2023-06-14T12:23:42;36.50;51.10
23991;DHT22;12205;50.600;4.608;2023-06-14T12:26:12;36.70;50.70
23991;DHT22;12205;50.600;4.608;2023-06-14T12:28:40;36.90;48.20
23991;DHT22;12205;50.600;4.608;2023-06-14T12:31:11;37.20;49.50
23991;DHT22;12205;50.600;4.608;2023-06-14T12:33:41;37.40;48.60
23991;DHT22;12205;50.600;4.608;2023-06-14T12:36:09;37.70;48.50
23991;DHT22;12205;50.600;4.608;2023-06-14T12:38:37;37.90;46.20
23991;DHT22;12205;50.600;4.608;2023-06-14T12:41:04;38.20;47.00
23991;DHT22;12205;50.600;4.608;2023-06-14T12:43:33;38.50;45.40
23991;DHT22;12205;50.600;4.608;2023-06-14T12:46:00;38.80;44.80
23991;DHT22;12205;50.600;4.608;2023-06-14T12:48:27;38.90;44.40
23991;DHT22;12205;50.600;4.608;2023-06-14T12:50:57;38.90;43.30
23991;DHT22;12205;50.600;4.608;2023-06-14T12:53:25;39.00;43.30
23991;DHT22;12205;50.600;4.608;2023-06-14T12:55:52;39.10;42.60
23991;DHT22;12205;50.600;4.608;2023-06-14T12:58:19;39.20;42.00
23991;DHT22;12205;50.600;4.608;2023-06-14T13:00:46;39.30;41.20
23991;DHT22;12205;50.600;4.608;2023-06-14T13:03:13;39.50;41.60
23991;DHT22;12205;50.600;4.608;2023-06-14T13:05:41;39.60;40.50
23991;DHT22;12205;50.600;4.608;2023-06-14T13:08:10;39.70;40.60
23991;DHT22;12205;50.600;4.608;2023-06-14T13:10:38;39.90;40.10
23991;DHT22;12205;50.600;4.608;2023-06-14T13:13:05;40.00;40.30
23991;DHT22;12205;50.600;4.608;2023-06-14T13:15:33;40.10;39.80
23991;DHT22;12205;50.600;4.608;2023-06-14T13:18:00;40.10;39.60
23991;DHT22;12205;50.600;4.608;2023-06-14T13:20:29;40.30;40.00
23991;DHT22;12205;50.600;4.608;2023-06-14T13:22:56;40.30;38.00
23991;DHT22;12205;50.600;4.608;2023-06-14T13:25:25;40.30;38.40
23991;DHT22;12205;50.600;4.608;2023-06-14T13:27:52;40.50;39.40
23991;DHT22;12205;50.600;4.608;2023-06-14T13:30:19;40.50;38.30
23991;DHT22;12205;50.600;4.608;2023-06-14T13:32:47;40.60;36.40
23991;DHT22;12205;50.600;4.608;2023-06-14T13:35:14;40.60;37.00
23991;DHT22;12205;50.600;4.608;2023-06-14T13:37:41;40.80;36.80
23991;DHT22;12205;50.600;4.608;2023-06-14T13:40:09;40.80;35.40
23991;DHT22;12205;50.600;4.608;2023-06-14T13:42:39;40.90;35.20
23991;DHT22;12205;50.600;4.608;2023-06-14T13:45:07;40.80;35.10
23991;DHT22;12205;50.600;4.608;2023-06-14T13:47:35;40.90;35.80
23991;DHT22;12205;50.600;4.608;2023-06-14T13:50:02;41.00;35.00
23991;DHT22;12205;50.600;4.608;2023-06-14T13:52:30;41.00;34.00
23991;DHT22;12205;50.600;4.608;2023-06-14T13:54:57;40.90;34.50
23991;DHT22;12205;50.600;4.608;2023-06-14T13:57:26;40.90;34.40
23991;DHT22;12205;50.600;4.608;2023-06-14T13:59:54;41.00;33.80
23991;DHT22;12205;50.600;4.608;2023-06-14T14:02:26;41.00;33.90
23991;DHT22;12205;50.600;4.608;2023-06-14T14:04:54;41.00;34.10
23991;DHT22;12205;50.600;4.608;2023-06-14T14:07:21;41.10;34.20
23991;DHT22;12205;50.600;4.608;2023-06-14T14:09:49;41.20;32.70
23991;DHT22;12205;50.600;4.608;2023-06-14T14:12:16;41.20;33.50
23991;DHT22;12205;50.600;4.608;2023-06-14T14:14:43;41.30;33.20
23991;DHT22;12205;50.600;4.608;2023-06-14T14:17:13;41.40;33.30
23991;DHT22;12205;50.600;4.608;2023-06-14T14:19:40;41.40;32.60
23991;DHT22;12205;50.600;4.608;2023-06-14T14:22:07;41.30;32.50
23991;DHT22;12205;50.600;4.608;2023-06-14T14:24:34;41.40;32.40
23991;DHT22;12205;50.600;4.608;2023-06-14T14:27:01;41.40;32.20
23991;DHT22;12205;50.600;4.608;2023-06-14T14:29:29;41.30;31.90
23991;DHT22;12205;50.600;4.608;2023-06-14T14:31:56;41.20;31.50
23991;DHT22;12205;50.600;4.608;2023-06-14T14:34:24;41.10;31.70
23991;DHT22;12205;50.600;4.608;2023-06-14T14:36:52;41.20;31.50
23991;DHT22;12205;50.600;4.608;2023-06-14T14:39:20;41.20;31.70
23991;DHT22;12205;50.600;4.608;2023-06-14T14:41:47;41.30;32.20
23991;DHT22;12205;50.600;4.608;2023-06-14T14:44:14;41.30;31.20
23991;DHT22;12205;50.600;4.608;2023-06-14T14:46:41;41.30;31.30
23991;DHT22;12205;50.600;4.608;2023-06-14T14:49:09;41.40;30.90
23991;DHT22;12205;50.600;4.608;2023-06-14T14:51:38;41.50;30.90
23991;DHT22;12205;50.600;4.608;2023-06-14T14:54:05;41.70;31.20
23991;DHT22;12205;50.600;4.608;2023-06-14T14:56:32;41.70;30.40
23991;DHT22;12205;50.600;4.608;2023-06-14T14:59:00;41.50;30.20
23991;DHT22;12205;50.600;4.608;2023-06-14T15:01:28;41.50;31.60
23991;DHT22;12205;50.600;4.608;2023-06-14T15:03:55;41.50;30.70
23991;DHT22;12205;50.600;4.608;2023-06-14T15:06:22;41.60;31.00
23991;DHT22;12205;50.600;4.608;2023-06-14T15:08:51;41.60;30.50
23991;DHT22;12205;50.600;4.608;2023-06-14T15:11:18;41.70;30.40
23991;DHT22;12205;50.600;4.608;2023-06-14T15:13:46;41.70;30.00
23991;DHT22;12205;50.600;4.608;2023-06-14T15:16:14;41.60;30.00
23991;DHT22;12205;50.600;4.608;2023-06-14T15:18:41;41.60;30.10
23991;DHT22;12205;50.600;4.608;2023-06-14T15:21:08;41.50;30.80
23991;DHT22;12205;50.600;4.608;2023-06-14T15:23:35;41.60;30.50
23991;DHT22;12205;50.600;4.608;2023-06-14T15:26:04;41.60;31.10
23991;DHT22;12205;50.600;4.608;2023-06-14T15:28:32;41.50;31.00
23991;DHT22;12205;50.600;4.608;2023-06-14T15:30:59;41.60;30.60
23991;DHT22;12205;50.600;4.608;2023-06-14T15:33:27;41.70;31.00
23991;DHT22;12205;50.600;4.608;2023-06-14T15:35:54;41.60;30.90
23991;DHT22;12205;50.600;4.608;2023-06-14T15:38:21;41.50;31.30
23991;DHT22;12205;50.600;4.608;2023-06-14T15:40:48;41.40;31.10
23991;DHT22;12205;50.600;4.608;2023-06-14T15:43:17;41.40;30.70